Time;durP1;ratioP1;P1;durP2;ratioP2;P2;SDS_P1;SDS_P2;PMS_P1;PMS_P2;Temp;Humidity;BMP_temperature;BMP_pressure;BME280_temperature;BME280_humidity;BME280_pressure;Samples;Min_cycle;Max_cycle;Signal;HPM_P1;HPM_P2
2023/03/06 00:01:53;;;;;;;18.40;15.57;;;;;;;7.92;49.23;98902.41;5107517;28;20451;-55
2023/03/06 00:04:22;;;;;;;19.67;14.57;;;;;;;7.91;49.19;98910.06;5079302;28;20180;-55
2023/03/06 00:06:48;;;;;;;17.40;14.43;;;;;;;7.94;49.31;98903.28;5096987;28;20175;-55
2023/03/06 00:09:15;;;;;;;15.83;12.70;;;;;;;7.94;49.22;98903.28;5098518;28;20175;-55
2023/03/06 00:11:42;;;;;;;16.00;13.43;;;;;;;7.94;49.03;98918.63;5099025;28;20168;-55
2023/03/06 00:14:08;;;;;;;16.03;13.23;;;;;;;7.98;49.07;98909.31;5100550;28;20174;-57
2023/03/06 00:16:35;;;;;;;15.83;12.83;;;;;;;7.92;49.19;98909.22;5119116;28;20205;-55
2023/03/06 00:19:02;;;;;;;17.37;14.13;;;;;;;7.96;48.83;98917.00;5118985;28;20177;-55
2023/03/06 00:21:30;;;;;;;19.83;13.80;;;;;;;8.00;48.57;98905.09;5118990;28;20183;-56
2023/03/06 00:23:57;;;;;;;18.00;13.33;;;;;;;7.91;48.95;98893.00;5118942;28;20171;-55
2023/03/06 00:26:23;;;;;;;18.40;13.93;;;;;;;7.94;49.00;98917.78;5118779;28;20179;-56
2023/03/06 00:28:50;;;;;;;17.70;14.13;;;;;;;7.94;48.83;98918.63;5104396;28;20223;-56
2023/03/06 00:31:17;;;;;;;18.40;13.93;;;;;;;7.90;48.96;98913.44;5098527;28;20175;-55
2023/03/06 00:33:43;;;;;;;15.73;13.47;;;;;;;7.92;49.02;98925.44;5098432;28;20198;-56
2023/03/06 00:36:10;;;;;;;15.27;13.33;;;;;;;7.67;49.44;98885.78;5098390;28;20170;-56
2023/03/06 00:38:38;;;;;;;15.37;13.03;;;;;;;7.95;49.32;98922.06;5098340;28;20175;-56
2023/03/06 00:41:10;;;;;;;15.83;13.17;;;;;;;7.91;48.76;98930.53;5097780;28;20168;-56
2023/03/06 00:43:37;;;;;;;18.03;13.07;;;;;;;7.88;48.97;98921.09;5098177;28;20170;-58
2023/03/06 00:46:05;;;;;;;18.57;12.93;;;;;;;7.90;48.99;98933.91;5098286;28;20170;-56
2023/03/06 00:48:32;;;;;;;17.57;13.30;;;;;;;7.84;49.62;98924.44;5098079;28;20215;-56
2023/03/06 00:50:59;;;;;;;17.57;14.07;;;;;;;7.78;49.85;98928.56;5098186;28;20183;-56
2023/03/06 00:53:26;;;;;;;16.10;13.60;;;;;;;7.79;49.44;98937.97;5097999;28;20197;-56
2023/03/06 00:55:54;;;;;;;17.20;12.83;;;;;;;7.79;50.04;98935.41;5098117;28;20178;-56
2023/03/06 00:58:20;;;;;;;17.33;13.77;;;;;;;7.61;49.83;98898.44;5098155;28;20174;-56
2023/03/06 01:00:47;;;;;;;18.47;14.00;;;;;;;7.77;49.45;98943.06;5101310;28;20183;-56
2023/03/06 01:03:14;;;;;;;16.30;13.53;;;;;;;7.79;49.56;98936.28;5118103;28;20183;-56
2023/03/06 01:05:41;;;;;;;15.50;12.57;;;;;;;7.77;50.03;98926.84;5118251;28;20171;-56
2023/03/06 01:08:08;;;;;;;17.03;13.47;;;;;;;7.79;49.64;98930.28;5117993;28;20202;-56
2023/03/06 01:10:38;;;;;;;17.50;13.43;;;;;;;7.79;49.73;98935.41;5118146;28;20193;-57
2023/03/06 01:13:07;;;;;;;14.70;13.20;;;;;;;7.70;49.88;98929.31;5118182;28;20216;-56
2023/03/06 01:15:34;;;;;;;18.13;13.80;;;;;;;7.69;50.04;98932.69;5118089;28;20175;-55
2023/03/06 01:18:01;;;;;;;17.23;13.73;;;;;;;7.64;50.07;98934.28;5117964;28;20176;-56
2023/03/06 01:20:28;;;;;;;18.57;13.60;;;;;;;7.61;50.10;98931.66;5117982;28;20171;-56
2023/03/06 01:22:55;;;;;;;15.77;13.27;;;;;;;7.57;50.41;98929.91;5117897;28;20179;-55
2023/03/06 01:25:22;;;;;;;17.37;13.30;;;;;;;7.58;50.55;98929.06;5118064;28;20174;-55
2023/03/06 01:27:49;;;;;;;17.33;14.10;;;;;;;7.59;50.12;98930.78;5117699;28;20218;-54
2023/03/06 01:30:17;;;;;;;17.17;13.00;;;;;;;7.55;50.37;98936.66;5117939;28;20190;-55
2023/03/06 01:32:44;;;;;;;17.27;13.47;;;;;;;7.57;50.32;98931.59;5117896;28;20186;-55
2023/03/06 01:35:12;;;;;;;18.23;13.23;;;;;;;7.61;50.19;98934.22;5097299;28;20184;-55
2023/03/06 01:37:39;;;;;;;20.40;14.07;;;;;;;7.64;50.21;98938.53;5096890;28;20194;-55
2023/03/06 01:40:08;;;;;;;18.00;13.30;;;;;;;7.60;50.08;98929.97;5096668;28;20183;-55
2023/03/06 01:42:35;;;;;;;16.87;13.37;;;;;;;7.57;50.86;98923.94;5097557;28;20178;-55
2023/03/06 01:45:05;;;;;;;20.58;14.18;;;;;;;7.65;50.23;98927.50;5096961;28;20426;-55
2023/03/06 01:47:33;;;;;;;20.40;14.50;;;;;;;7.69;50.03;98937.78;5097590;28;20180;-55
2023/03/06 01:50:02;;;;;;;14.57;13.00;;;;;;;7.62;50.30;98933.41;5097570;28;20216;-55
2023/03/06 01:52:32;;;;;;;17.67;13.73;;;;;;;7.66;50.49;98942.00;5092751;28;20206;-55
2023/03/06 01:55:02;;;;;;;19.47;13.83;;;;;;;7.63;50.46;98935.16;5090311;28;20187;-55
2023/03/06 01:57:32;;;;;;;19.43;13.80;;;;;;;7.57;50.34;98934.16;5101606;28;20179;-55
2023/03/06 02:00:04;;;;;;;16.50;12.40;;;;;;;7.55;50.14;98946.88;5101501;28;20167;-55
2023/03/06 02:02:31;;;;;;;17.67;13.47;;;;;;;7.53;50.21;98958.78;5098427;28;20171;-56
2023/03/06 02:05:01;;;;;;;20.00;13.50;;;;;;;7.48;50.44;98954.41;5089793;28;20209;-55
2023/03/06 02:07:29;;;;;;;14.93;12.23;;;;;;;7.42;50.85;98952.59;5089871;28;20183;-55
2023/03/06 02:09:56;;;;;;;19.07;15.07;;;;;;;7.36;51.30;98952.47;5100432;28;20171;-55
2023/03/06 02:12:23;;;;;;;19.83;13.97;;;;;;;7.42;51.42;98955.16;5101020;28;20203;-55
2023/03/06 02:14:51;;;;;;;16.57;14.07;;;;;;;7.31;51.31;98958.31;5101116;28;20177;-55
2023/03/06 02:17:22;;;;;;;18.73;14.20;;;;;;;7.22;51.57;98948.81;5101107;28;20175;-55
2023/03/06 02:19:56;;;;;;;17.67;13.63;;;;;;;7.08;51.44;98945.97;5100953;28;20173;-54
2023/03/06 02:22:29;;;;;;;16.03;13.90;;;;;;;7.18;51.60;98961.47;5100955;28;20167;-56
2023/03/06 02:25:03;;;;;;;19.97;14.53;;;;;;;7.09;51.86;98960.44;5100754;28;20178;-55
2023/03/06 02:27:32;;;;;;;17.53;13.03;;;;;;;7.10;51.96;98972.41;5100555;28;20194;-55
2023/03/06 02:29:59;;;;;;;17.37;14.50;;;;;;;7.06;51.75;98967.16;5100830;28;20186;-55
2023/03/06 02:32:25;;;;;;;18.93;14.67;;;;;;;7.09;51.79;98965.56;5100747;28;20182;-55
2023/03/06 02:34:57;;;;;;;20.30;14.10;;;;;;;7.08;51.51;98973.19;5100688;28;20210;-55
2023/03/06 02:37:26;;;;;;;18.60;13.47;;;;;;;6.89;51.95;98953.19;5100656;28;20173;-56
2023/03/06 02:39:59;;;;;;;18.20;14.40;;;;;;;7.01;52.58;98976.41;5100635;28;20185;-55
2023/03/06 02:42:28;;;;;;;16.60;13.83;;;;;;;6.91;52.84;98965.16;5100602;28;20180;-55
2023/03/06 02:44:59;;;;;;;16.37;12.87;;;;;;;6.94;53.54;98980.56;5100573;28;20182;-55
2023/03/06 02:47:25;;;;;;;19.80;14.57;;;;;;;6.95;53.23;98973.75;5100522;28;20193;-56
2023/03/06 02:49:52;;;;;;;22.07;14.77;;;;;;;6.97;53.20;98974.66;5100357;28;20193;-55
2023/03/06 02:52:19;;;;;;;19.13;15.40;;;;;;;6.97;53.61;98974.66;5100366;28;20175;-55
2023/03/06 02:54:46;;;;;;;18.80;14.77;;;;;;;6.70;53.91;98958.72;5100272;28;20179;-56
2023/03/06 02:57:13;;;;;;;18.97;14.53;;;;;;;6.83;54.74;98982.00;5100215;28;20187;-55
2023/03/06 02:59:39;;;;;;;18.87;14.50;;;;;;;6.80;54.23;98976.81;5100196;28;20183;-55
2023/03/06 03:02:08;;;;;;;17.20;13.97;;;;;;;6.76;54.30;98969.03;5100162;28;20168;-56
2023/03/06 03:04:34;;;;;;;19.50;14.73;;;;;;;6.70;55.02;98969.81;5099598;28;20208;-55
2023/03/06 03:07:01;;;;;;;17.43;13.47;;;;;;;6.72;54.41;98975.78;5100089;28;20171;-55
2023/03/06 03:09:28;;;;;;;17.95;15.15;;;;;;;6.73;54.35;98976.66;5099465;28;20436;-56
2023/03/06 03:11:55;;;;;;;20.50;15.00;;;;;;;6.77;54.56;98981.00;5099848;28;20187;-56
2023/03/06 03:14:24;;;;;;;18.23;14.60;;;;;;;6.67;54.84;98979.06;5099944;28;20182;-56
2023/03/06 03:16:51;;;;;;;20.87;14.60;;;;;;;6.63;55.44;98975.56;5099974;28;20181;-56
2023/03/06 03:19:19;;;;;;;19.17;14.67;;;;;;;6.60;54.44;98980.59;5099866;28;20177;-57
2023/03/06 03:21:46;;;;;;;16.57;13.60;;;;;;;6.60;55.05;98979.72;5099826;28;20170;-56
2023/03/06 03:24:13;;;;;;;17.93;14.77;;;;;;;6.59;55.51;98978.91;5099758;28;20172;-56
2023/03/06 03:26:39;;;;;;;20.13;15.10;;;;;;;6.50;55.39;98976.13;5099754;28;20172;-58
2023/03/06 03:29:06;;;;;;;20.97;14.60;;;;;;;6.54;55.51;98977.91;5099551;28;20195;-56
2023/03/06 03:31:33;;;;;;;22.00;15.00;;;;;;;6.48;56.26;98977.78;5099754;28;20181;-56
2023/03/06 03:34:00;;;;;;;19.67;15.13;;;;;;;6.46;55.91;98990.47;5099628;28;20175;-56
2023/03/06 03:36:28;;;;;;;18.83;14.70;;;;;;;6.45;56.51;98978.56;5099544;28;20224;-55
2023/03/06 03:38:56;;;;;;;18.30;14.80;;;;;;;6.48;56.28;98990.53;5099511;28;20191;-56
2023/03/06 03:41:23;;;;;;;20.43;15.03;;;;;;;6.49;55.73;98984.59;5099559;28;20174;-56
2023/03/06 03:43:50;;;;;;;21.40;15.13;;;;;;;6.47;56.48;98974.34;5099410;28;20176;-56
2023/03/06 03:46:17;;;;;;;21.57;15.50;;;;;;;6.50;56.30;98982.09;5099347;28;20171;-55
2023/03/06 03:48:43;;;;;;;19.27;14.50;;;;;;;6.50;56.75;98971.88;5099236;28;20206;-56
2023/03/06 03:51:12;;;;;;;19.77;15.77;;;;;;;6.49;56.36;98979.47;5099244;28;20196;-56
2023/03/06 03:53:40;;;;;;;21.00;15.73;;;;;;;6.53;56.08;98979.63;5099044;28;20183;-56
2023/03/06 03:56:07;;;;;;;20.07;15.70;;;;;;;6.56;55.62;98980.50;5099162;28;20171;-57
2023/03/06 03:58:34;;;;;;;22.47;16.20;;;;;;;6.54;55.50;98985.56;5099142;28;20204;-55
2023/03/06 04:01:01;;;;;;;19.37;14.17;;;;;;;6.52;55.43;98982.97;5099087;28;20170;-55
2023/03/06 04:03:28;;;;;;;18.67;15.27;;;;;;;6.52;55.15;98975.31;5098908;28;20169;-56
2023/03/06 04:05:56;;;;;;;19.40;15.67;;;;;;;6.48;55.08;98975.22;5098926;28;20190;-55
2023/03/06 04:08:24;;;;;;;20.73;15.30;;;;;;;6.29;54.51;98943.28;5098868;28;20195;-55
2023/03/06 04:10:53;;;;;;;17.57;14.20;;;;;;;6.52;53.99;98979.56;5098732;28;20202;-56
2023/03/06 04:13:21;;;;;;;21.43;14.63;;;;;;;6.57;54.62;98987.31;5098615;28;20171;-56
2023/03/06 04:15:48;;;;;;;21.97;17.00;;;;;;;6.54;54.06;98985.56;5097228;28;20472;-56
2023/03/06 04:18:16;;;;;;;18.40;14.70;;;;;;;6.61;54.11;98996.78;5098638;28;20190;-56
2023/03/06 04:20:43;;;;;;;21.73;15.10;;;;;;;6.60;53.48;98998.47;5098654;28;20175;-57
2023/03/06 04:23:10;;;;;;;18.50;14.73;;;;;;;6.59;53.17;99001.88;5098456;28;20190;-55
2023/03/06 04:25:36;;;;;;;20.07;14.53;;;;;;;6.60;53.79;98995.03;5098341;28;20178;-55
2023/03/06 04:28:05;;;;;;;20.83;13.73;;;;;;;6.59;53.26;98993.34;5098126;28;20234;-55
2023/03/06 04:30:33;;;;;;;19.00;14.20;;;;;;;6.66;52.96;99006.28;5098342;28;20175;-55
2023/03/06 04:33:00;;;;;;;16.37;13.13;;;;;;;6.68;52.09;99011.41;5098269;28;20174;-55
2023/03/06 04:35:27;;;;;;;17.17;12.93;;;;;;;6.70;52.39;99014.88;5098101;28;20189;-55
2023/03/06 04:37:54;;;;;;;20.03;14.17;;;;;;;6.61;52.70;99015.50;5098177;28;20179;-56
2023/03/06 04:40:23;;;;;;;16.00;12.67;;;;;;;6.64;52.43;99001.97;5098084;28;20179;-55
2023/03/06 04:42:50;;;;;;;16.30;13.17;;;;;;;6.61;52.28;99014.66;5098166;28;20184;-55
2023/03/06 04:45:18;;;;;;;17.30;13.73;;;;;;;6.53;53.21;99011.91;5098208;28;20190;-55
2023/03/06 04:47:45;;;;;;;18.77;14.20;;;;;;;6.51;52.92;99009.31;5098031;28;20175;-55
2023/03/06 04:50:12;;;;;;;17.63;13.93;;;;;;;6.42;53.24;99001.44;5097934;28;20202;-55
2023/03/06 04:52:40;;;;;;;18.43;13.67;;;;;;;6.67;52.56;99025.00;5097893;28;20188;-55
2023/03/06 04:55:08;;;;;;;16.57;13.40;;;;;;;6.60;52.63;99026.53;5097865;28;20186;-55
2023/03/06 04:57:36;;;;;;;16.33;13.20;;;;;;;6.70;52.96;99035.28;5097630;28;20210;-56
2023/03/06 05:00:04;;;;;;;24.80;15.00;;;;;;;6.64;52.40;99030.91;5097647;28;20175;-56
2023/03/06 05:02:33;;;;;;;20.53;14.90;;;;;;;6.66;53.46;99030.94;5097820;28;20179;-56
2023/03/06 05:05:00;;;;;;;18.93;14.77;;;;;;;6.66;53.06;99034.34;5097785;28;20194;-56
2023/03/06 05:07:27;;;;;;;17.77;14.23;;;;;;;6.68;52.76;99039.47;5097665;28;20204;-56
2023/03/06 05:09:54;;;;;;;18.57;13.80;;;;;;;6.72;52.46;99041.28;5097745;28;20199;-57
2023/03/06 05:12:21;;;;;;;17.37;14.23;;;;;;;6.69;53.29;99054.84;5097542;28;20190;-56
2023/03/06 05:14:47;;;;;;;18.00;14.63;;;;;;;6.72;52.46;99047.28;5097522;28;20214;-56
2023/03/06 05:17:14;;;;;;;20.63;14.00;;;;;;;6.74;52.77;99049.84;5097557;28;20232;-56
2023/03/06 05:19:42;;;;;;;18.97;13.77;;;;;;;6.76;53.10;99043.94;5097471;28;20183;-56
2023/03/06 05:22:09;;;;;;;21.33;14.67;;;;;;;6.83;52.54;99052.63;5097256;28;20201;-56
2023/03/06 05:24:36;;;;;;;20.17;14.47;;;;;;;6.72;52.03;99023.44;5097553;28;20237;-56
2023/03/06 05:27:03;;;;;;;20.53;13.90;;;;;;;7.13;56.20;99058.44;5097030;28;20187;-56
2023/03/06 05:29:30;;;;;;;18.23;14.17;;;;;;;7.20;54.19;99057.75;5097401;28;20221;-56
2023/03/06 05:31:57;;;;;;;15.03;13.00;;;;;;;7.29;52.16;99065.63;5097439;28;20178;-56
2023/03/06 05:34:24;;;;;;;18.87;13.77;;;;;;;7.27;52.46;99072.41;5097305;28;20197;-56
2023/03/06 05:36:52;;;;;;;19.20;15.10;;;;;;;7.19;51.82;99056.03;5097433;28;20191;-56
2023/03/06 05:39:19;;;;;;;17.60;13.80;;;;;;;7.31;51.17;99075.84;5097396;28;20170;-56
2023/03/06 05:41:46;;;;;;;23.53;17.53;;;;;;;7.25;51.86;99071.47;5096887;28;20540;-57
2023/03/06 05:44:13;;;;;;;21.30;16.70;;;;;;;7.13;52.53;99068.66;5097239;28;20187;-55
2023/03/06 05:46:39;;;;;;;26.20;16.77;;;;;;;7.23;52.79;99080.81;5097347;28;20194;-56
2023/03/06 05:49:06;;;;;;;23.80;17.00;;;;;;;7.00;53.02;99041.13;5097071;28;20207;-56
2023/03/06 05:51:33;;;;;;;21.07;16.53;;;;;;;7.31;52.47;99086.94;5097137;28;20179;-57
2023/03/06 05:54:01;;;;;;;23.93;17.17;;;;;;;7.29;53.04;99091.16;5097131;28;20289;-54
2023/03/06 05:56:28;;;;;;;23.50;16.90;;;;;;;7.33;52.96;99095.53;5096806;28;20178;-54
2023/03/06 05:58:55;;;;;;;23.93;17.47;;;;;;;7.33;52.88;99098.09;5097027;28;20186;-55
2023/03/06 06:01:21;;;;;;;28.30;20.40;;;;;;;7.41;52.72;99101.69;5096485;28;20422;-56
2023/03/06 06:03:48;;;;;;;27.87;18.13;;;;;;;7.46;52.25;99104.31;5097149;28;20171;-55
2023/03/06 06:06:15;;;;;;;23.77;17.60;;;;;;;7.53;51.96;99109.59;5096972;28;20175;-55
2023/03/06 06:08:42;;;;;;;27.83;17.37;;;;;;;7.56;52.13;99103.69;5097061;28;20170;-55
2023/03/06 06:11:12;;;;;;;26.10;16.67;;;;;;;7.63;51.23;99113.22;5096941;28;20182;-56
2023/03/06 06:13:40;;;;;;;23.97;15.00;;;;;;;7.41;50.79;99077.81;5096580;28;20185;-55
2023/03/06 06:16:07;;;;;;;20.97;15.80;;;;;;;7.53;51.54;99101.94;5096821;28;20180;-55
2023/03/06 06:18:34;;;;;;;16.87;13.33;;;;;;;7.69;49.92;99113.38;5096788;28;20199;-56
2023/03/06 06:21:04;;;;;;;21.73;15.23;;;;;;;7.70;50.01;99105.72;5096345;28;20175;-55
2023/03/06 06:23:31;;;;;;;18.97;15.27;;;;;;;7.74;50.58;99106.66;5096560;28;20178;-56
2023/03/06 06:25:59;;;;;;;20.90;14.43;;;;;;;7.82;49.62;99111.91;5096591;28;20180;-55
2023/03/06 06:28:27;;;;;;;19.93;14.33;;;;;;;7.81;49.29;99112.72;5096384;28;20202;-56
2023/03/06 06:31:00;;;;;;;20.27;14.70;;;;;;;7.80;49.53;99121.25;5096488;28;20217;-55
2023/03/06 06:33:27;;;;;;;18.23;14.27;;;;;;;7.85;49.27;99123.09;5096490;28;20192;-55
2023/03/06 06:35:53;;;;;;;18.73;14.87;;;;;;;7.93;49.30;99119.00;5096491;28;20171;-55
2023/03/06 06:38:20;;;;;;;19.50;13.77;;;;;;;8.00;49.06;99118.25;5096604;28;20194;-55
2023/03/06 06:40:47;;;;;;;17.90;14.20;;;;;;;8.07;48.83;99127.81;5099063;28;20186;-55
2023/03/06 06:43:14;;;;;;;20.37;14.00;;;;;;;8.10;49.04;99121.88;5100113;28;20183;-56
2023/03/06 06:45:43;;;;;;;18.07;12.87;;;;;;;8.20;48.36;99123.78;5099733;28;20172;-55
2023/03/06 06:48:10;;;;;;;23.13;15.30;;;;;;;8.30;48.46;99120.59;5099762;28;20206;-56
2023/03/06 06:50:36;;;;;;;18.80;14.27;;;;;;;8.34;48.25;99124.09;5099760;28;20202;-56
2023/03/06 06:53:03;;;;;;;19.77;14.53;;;;;;;8.40;48.21;99127.63;5085658;28;20203;-55
2023/03/06 06:55:30;;;;;;;17.77;13.80;;;;;;;8.50;47.83;99126.09;5079011;28;20175;-55
2023/03/06 06:57:57;;;;;;;19.50;14.27;;;;;;;8.43;48.13;99130.25;5079140;28;20194;-56
2023/03/06 07:00:24;;;;;;;22.63;14.53;;;;;;;8.47;48.02;99129.47;5079280;28;20175;-57
2023/03/06 07:02:52;;;;;;;18.23;13.30;;;;;;;8.47;48.34;99124.34;5098739;28;20205;-55
2023/03/06 07:05:19;;;;;;;17.90;13.90;;;;;;;8.50;47.98;99128.66;5099589;28;20172;-55
2023/03/06 07:07:46;;;;;;;19.00;14.57;;;;;;;8.59;48.22;99139.06;5099767;28;20167;-55
2023/03/06 07:10:15;;;;;;;23.07;14.57;;;;;;;8.58;47.95;99138.19;5099732;28;20209;-56
2023/03/06 07:12:42;;;;;;;15.67;13.77;;;;;;;8.52;47.93;99103.94;5117910;28;20190;-55
2023/03/06 07:15:12;;;;;;;16.57;14.17;;;;;;;8.76;47.83;99130.00;5119981;28;20282;-55
2023/03/06 07:17:38;;;;;;;20.63;14.87;;;;;;;8.83;47.98;99134.38;5119973;28;20171;-54
2023/03/06 07:20:09;;;;;;;17.47;14.00;;;;;;;8.90;47.74;99144.75;5101488;28;20191;-55
2023/03/06 07:22:36;;;;;;;22.77;14.77;;;;;;;8.92;47.96;99131.09;5099491;28;20175;-56
2023/03/06 07:25:04;;;;;;;18.03;14.80;;;;;;;9.01;48.02;99138.97;5099424;28;20225;-55
2023/03/06 07:27:31;;;;;;;18.13;14.43;;;;;;;9.02;47.59;99146.66;5099030;28;20211;-55
2023/03/06 07:29:57;;;;;;;19.17;14.73;;;;;;;9.07;47.68;99151.84;5099005;28;20211;-56
2023/03/06 07:32:24;;;;;;;19.40;14.83;;;;;;;9.10;47.84;99152.78;5099245;28;20174;-55
2023/03/06 07:34:51;;;;;;;16.43;13.83;;;;;;;9.08;48.37;99154.44;5099204;28;20176;-55
2023/03/06 07:37:20;;;;;;;22.17;15.37;;;;;;;9.13;48.61;99151.94;5098997;28;20176;-55
2023/03/06 07:39:47;;;;;;;22.53;16.23;;;;;;;9.19;48.43;99159.75;5098945;28;20167;-56
2023/03/06 07:42:14;;;;;;;26.30;15.83;;;;;;;8.88;48.22;99108.00;5098839;28;20182;-55
2023/03/06 07:44:41;;;;;;;22.70;15.23;;;;;;;9.24;48.31;99153.84;5099164;28;20179;-57
2023/03/06 07:47:08;;;;;;;18.17;14.30;;;;;;;9.31;48.33;99163.34;5116323;28;20201;-55
2023/03/06 07:49:35;;;;;;;19.17;14.03;;;;;;;9.13;48.24;99124.63;5101300;28;20219;-56
2023/03/06 07:52:02;;;;;;;19.13;15.00;;;;;;;9.41;48.22;99160.13;5098505;28;20171;-56
2023/03/06 07:54:31;;;;;;;20.03;15.20;;;;;;;9.48;48.48;99153.34;5097487;28;20179;-56
2023/03/06 07:56:58;;;;;;;17.47;15.13;;;;;;;9.57;47.79;99152.63;5098573;28;20225;-56
2023/03/06 07:59:25;;;;;;;20.80;14.67;;;;;;;9.71;47.80;99151.13;5098520;28;20190;-56
2023/03/06 08:01:54;;;;;;;23.93;16.77;;;;;;;9.78;47.67;99161.50;5096764;28;20179;-54
2023/03/06 08:04:20;;;;;;;19.60;16.33;;;;;;;9.89;47.38;99164.22;5093981;28;20179;-58
2023/03/06 08:06:47;;;;;;;20.33;15.83;;;;;;;10.00;47.13;99170.34;5090698;28;20176;-56
2023/03/06 08:09:14;;;;;;;19.07;15.50;;;;;;;10.07;47.18;99162.75;5097968;28;20202;-55
2023/03/06 08:11:44;;;;;;;20.07;15.40;;;;;;;10.13;46.73;99150.88;5097591;28;20179;-55
2023/03/06 08:14:10;;;;;;;22.60;16.17;;;;;;;10.14;46.12;99161.16;5095884;28;20163;-55
2023/03/06 08:16:37;;;;;;;19.57;15.33;;;;;;;10.20;45.72;99165.50;5097330;28;20188;-55
2023/03/06 08:19:04;;;;;;;20.47;15.23;;;;;;;10.16;45.92;99138.09;5097614;28;20164;-55
2023/03/06 08:21:31;;;;;;;20.27;15.93;;;;;;;10.26;45.23;99158.75;5097482;28;20219;-55
2023/03/06 08:23:58;;;;;;;19.47;15.63;;;;;;;10.37;45.23;99159.75;5095075;28;20180;-55
2023/03/06 08:26:26;;;;;;;18.30;15.50;;;;;;;10.42;45.24;99160.66;5094910;28;20176;-55
2023/03/06 08:28:56;;;;;;;21.47;17.57;;;;;;;10.52;44.89;99156.50;5096837;28;20496;-56
2023/03/06 08:31:29;;;;;;;18.67;15.30;;;;;;;10.52;44.84;99156.50;5097363;28;20188;-56
2023/03/06 08:33:59;;;;;;;22.43;15.07;;;;;;;10.38;44.99;99151.16;5097442;28;20168;-56
2023/03/06 08:36:26;;;;;;;21.40;15.60;;;;;;;10.46;45.17;99143.56;5097478;28;20217;-57
2023/03/06 08:38:53;;;;;;;20.27;16.20;;;;;;;10.62;45.44;99143.75;5087046;28;20226;-55
2023/03/06 08:41:20;;;;;;;22.67;16.43;;;;;;;10.85;44.85;99140.56;5077957;28;20177;-55
2023/03/06 08:43:46;;;;;;;20.50;16.57;;;;;;;10.98;44.74;99139.81;5091637;28;20197;-56
2023/03/06 08:46:15;;;;;;;21.77;16.80;;;;;;;11.07;44.57;99130.44;5094793;28;20212;-56
2023/03/06 08:48:42;;;;;;;21.17;15.87;;;;;;;11.19;43.93;99143.41;5097498;28;20178;-55
2023/03/06 08:51:09;;;;;;;20.77;16.57;;;;;;;11.25;43.14;99138.31;5091352;28;20208;-55
2023/03/06 08:53:36;;;;;;;20.00;16.97;;;;;;;11.34;43.73;99140.13;5085629;28;20234;-55
2023/03/06 08:56:03;;;;;;;23.77;18.77;;;;;;;11.46;43.62;99134.16;5082216;28;20190;-56
2023/03/06 08:58:30;;;;;;;22.93;16.37;;;;;;;11.54;43.07;99128.22;5097126;28;20184;-56
2023/03/06 09:00:57;;;;;;;23.17;16.80;;;;;;;11.51;43.03;99135.91;5097338;28;20172;-56
2023/03/06 09:03:26;;;;;;;21.43;16.33;;;;;;;11.57;43.30;99125.69;5096709;28;20198;-57
2023/03/06 09:05:52;;;;;;;21.47;16.77;;;;;;;11.65;43.04;99129.16;5093846;28;20184;-56
2023/03/06 09:08:19;;;;;;;18.93;15.40;;;;;;;11.67;42.73;99126.59;5094312;28;20205;-57
2023/03/06 09:10:46;;;;;;;21.23;15.73;;;;;;;11.65;42.88;99095.69;5097270;28;20229;-56
2023/03/06 09:13:14;;;;;;;23.57;17.07;;;;;;;11.87;42.45;99117.28;5093734;28;20213;-57
2023/03/06 09:15:41;;;;;;;20.40;16.00;;;;;;;11.90;42.20;99113.88;5096751;28;20176;-56
2023/03/06 09:18:07;;;;;;;21.10;16.87;;;;;;;11.99;41.82;99112.22;5097368;28;20175;-56
2023/03/06 09:20:36;;;;;;;25.70;16.03;;;;;;;12.01;42.36;99107.91;5097628;28;20171;-56
2023/03/06 09:23:04;;;;;;;19.37;16.50;;;;;;;12.02;41.68;99108.78;5097398;28;20168;-56
2023/03/06 09:25:31;;;;;;;20.27;15.40;;;;;;;12.00;42.02;99100.22;5097307;28;20167;-56
2023/03/06 09:27:57;;;;;;;24.97;17.30;;;;;;;11.80;42.29;99102.69;5094741;28;20227;-56
2023/03/06 09:30:24;;;;;;;22.57;15.77;;;;;;;11.74;42.69;99105.22;5097065;28;20191;-56
2023/03/06 09:32:51;;;;;;;19.47;15.00;;;;;;;11.77;42.42;99105.25;5099197;28;20186;-55
2023/03/06 09:35:17;;;;;;;23.83;15.70;;;;;;;11.89;42.23;99101.88;5097151;28;20172;-56
2023/03/06 09:37:46;;;;;;;24.27;16.10;;;;;;;11.97;41.97;99113.06;5096484;28;20175;-55
2023/03/06 09:40:19;;;;;;;26.20;15.87;;;;;;;12.04;41.75;99105.38;5095305;28;20218;-55
2023/03/06 09:42:46;;;;;;;17.23;15.33;;;;;;;12.18;41.98;99114.00;5096927;28;20193;-55
2023/03/06 09:45:13;;;;;;;18.80;14.30;;;;;;;12.15;42.74;99101.13;5096561;28;20183;-56
2023/03/06 09:47:49;;;;;;;19.70;14.33;;;;;;;12.19;42.11;99110.59;5096390;28;20239;-56
2023/03/06 09:50:27;;;;;;;19.40;15.57;;;;;;;12.27;42.17;99108.03;5095218;28;20233;-56
2023/03/06 09:53:13;;;;;;;16.77;13.83;;;;;;;12.36;41.89;99103.75;5094923;28;20219;-56
2023/03/06 09:55:42;;;;;;;17.60;14.60;;;;;;;12.49;41.79;99103.78;5094943;28;20188;-56
2023/03/06 09:58:16;;;;;;;23.53;14.17;;;;;;;12.51;41.66;99089.19;5096073;28;20175;-56
2023/03/06 10:00:48;;;;;;;20.57;15.30;;;;;;;12.43;41.99;99074.59;5096716;28;20172;-55
2023/03/06 10:03:21;;;;;;;21.80;14.43;;;;;;;12.51;42.04;99094.34;5096815;28;20172;-56
2023/03/06 10:05:53;;;;;;;18.07;14.03;;;;;;;12.48;41.84;99091.75;5096925;28;20184;-57
2023/03/06 10:08:25;;;;;;;17.67;14.17;;;;;;;12.58;41.86;99090.94;5096765;28;20171;-56
2023/03/06 10:11:00;;;;;;;19.13;15.53;;;;;;;12.73;41.99;99091.81;5096484;28;20212;-55
2023/03/06 10:13:35;;;;;;;16.00;14.20;;;;;;;12.66;41.47;99081.50;5096608;28;20183;-56
2023/03/06 10:16:10;;;;;;;18.37;13.80;;;;;;;12.75;41.76;99094.38;5099844;28;20171;-56
2023/03/06 10:18:37;;;;;;;17.53;14.10;;;;;;;12.88;41.53;99083.25;5101020;28;20175;-56
2023/03/06 10:21:15;;;;;;;22.00;14.50;;;;;;;12.96;41.77;99074.63;5099956;28;20171;-57
2023/03/06 10:23:52;;;;;;;18.63;14.47;;;;;;;13.08;41.56;99081.53;5098145;28;20176;-56
2023/03/06 10:26:23;;;;;;;21.47;16.07;;;;;;;13.11;41.67;99078.94;5099405;28;20256;-56
2023/03/06 10:29:02;;;;;;;20.40;14.93;;;;;;;12.87;41.55;99069.47;5099510;28;20264;-55
2023/03/06 10:31:29;;;;;;;21.07;15.93;;;;;;;12.84;42.38;99068.59;5097601;28;20207;-55
2023/03/06 10:33:58;;;;;;;26.53;14.47;;;;;;;12.86;41.92;99072.03;5099023;28;20194;-56
2023/03/06 10:36:26;;;;;;;18.23;14.00;;;;;;;12.98;41.32;99067.75;5096367;28;20195;-56
2023/03/06 10:38:56;;;;;;;18.97;14.93;;;;;;;12.93;41.08;99056.59;5099688;28;20167;-57
2023/03/06 10:41:27;;;;;;;22.13;13.90;;;;;;;12.91;41.11;99032.50;5099732;28;20183;-56
2023/03/06 10:44:22;;;;;;;18.20;14.60;;;;;;;13.32;40.90;99063.44;5099411;28;20167;-55
2023/03/06 10:46:51;;;;;;;17.27;14.60;;;;;;;13.37;40.07;99054.00;5097475;28;20177;-55
2023/03/06 10:49:25;;;;;;;20.73;14.43;;;;;;;13.37;39.86;99056.56;5098937;28;20167;-55
2023/03/06 10:51:57;;;;;;;19.50;15.47;;;;;;;13.41;40.64;99047.94;5099519;28;20255;-56
2023/03/06 10:54:26;;;;;;;21.90;16.10;;;;;;;13.47;41.04;99044.50;5096591;28;20171;-57
2023/03/06 10:56:53;;;;;;;22.13;15.57;;;;;;;13.51;40.93;99031.56;5099211;28;20233;-56
2023/03/06 10:59:24;;;;;;;18.13;14.90;;;;;;;13.70;40.57;99037.56;5098932;28;20174;-55
2023/03/06 11:01:52;;;;;;;18.07;13.90;;;;;;;13.88;39.38;99029.72;5098858;28;20239;-56
2023/03/06 11:04:26;;;;;;;18.77;16.13;;;;;;;14.03;39.55;99023.63;5098851;28;20223;-56
2023/03/06 11:07:15;;;;;;;20.27;15.87;;;;;;;14.14;39.63;99024.44;5098912;28;20168;-56
2023/03/06 11:09:46;;;;;;;23.60;14.57;;;;;;;14.19;38.78;99014.94;5098829;28;20168;-56
2023/03/06 11:12:23;;;;;;;21.47;15.67;;;;;;;14.32;39.21;99014.00;5099583;28;20236;-56
2023/03/06 11:15:10;;;;;;;19.05;16.73;;;;;;;14.46;39.29;99012.19;5098615;28;20443;-56
2023/03/06 11:17:47;;;;;;;20.43;16.03;;;;;;;14.55;38.98;99009.56;5089362;28;20172;-56
2023/03/06 11:20:19;;;;;;;20.57;14.23;;;;;;;14.56;38.58;99010.38;5096644;28;20178;-56
2023/03/06 11:22:49;;;;;;;18.50;14.50;;;;;;;14.62;37.69;99002.59;5095229;28;20187;-56
2023/03/06 11:25:20;;;;;;;15.33;13.20;;;;;;;14.67;38.10;98999.09;5098316;28;20229;-56
2023/03/06 11:27:55;;;;;;;17.87;14.13;;;;;;;14.59;37.76;98998.28;5098208;28;20210;-57